Terminal Aerodrome Forecast
Issued by NWS Upton, NY

Home | Current Version | Previous Version | Text Only | Print | Product List | Glossary On
Versions: 1 2 3 4 5 6 7 8 9 10 11 12 13 14 15 16 17 18 19 20 21 22 23 24 25 26 27 28 29 30
000
FTUS41 KOKX 171800 AAA
TAFBDR
TAF AMD
KBDR 171802Z 1718/1818 29011KT P6SM BKN035
     FM171900 29013G21KT P6SM BKN035
     FM180000 29010KT P6SM SCT035 BKN050
     FM180600 28012G20KT P6SM BKN050
     FM181100 27010KT P6SM SCT050
     FM181400 29016G24KT P6SM SCT035=

USA.gov is the U.S. government's official web portal to all federal, state and local government web resources and services.